sensor_id;sensor_type;location;lat;lon;timestamp;temperature;humidity
75387;DHT22;63966;47.914;22.266;2023-05-10T00:00:07;7.63;64.62
75387;DHT22;63966;47.914;22.266;2023-05-10T00:03:15;7.61;64.80
75387;DHT22;63966;47.914;22.266;2023-05-10T00:06:19;7.60;64.77
75387;DHT22;63966;47.914;22.266;2023-05-10T00:09:22;7.44;65.37
75387;DHT22;63966;47.914;22.266;2023-05-10T00:12:25;7.61;64.94
75387;DHT22;63966;47.914;22.266;2023-05-10T00:15:29;7.53;65.33
75387;DHT22;63966;47.914;22.266;2023-05-10T00:18:33;7.46;65.56
75387;DHT22;63966;47.914;22.266;2023-05-10T00:21:37;7.44;65.84
75387;DHT22;63966;47.914;22.266;2023-05-10T00:24:40;7.60;65.11
75387;DHT22;63966;47.914;22.266;2023-05-10T00:27:43;7.51;65.29
75387;DHT22;63966;47.914;22.266;2023-05-10T00:30:47;7.55;65.24
75387;DHT22;63966;47.914;22.266;2023-05-10T00:33:50;7.58;65.17
75387;DHT22;63966;47.914;22.266;2023-05-10T00:36:54;7.58;65.19
75387;DHT22;63966;47.914;22.266;2023-05-10T00:39:57;7.54;65.59
75387;DHT22;63966;47.914;22.266;2023-05-10T00:43:00;7.54;65.31
75387;DHT22;63966;47.914;22.266;2023-05-10T00:46:05;7.43;65.80
75387;DHT22;63966;47.914;22.266;2023-05-10T00:49:09;7.46;65.83
75387;DHT22;63966;47.914;22.266;2023-05-10T00:52:12;7.48;65.55
75387;DHT22;63966;47.914;22.266;2023-05-10T00:55:16;7.47;65.80
75387;DHT22;63966;47.914;22.266;2023-05-10T00:58:20;7.38;65.93
75387;DHT22;63966;47.914;22.266;2023-05-10T01:01:24;7.31;66.20
75387;DHT22;63966;47.914;22.266;2023-05-10T01:04:28;7.31;66.25
75387;DHT22;63966;47.914;22.266;2023-05-10T01:07:32;7.22;66.58
75387;DHT22;63966;47.914;22.266;2023-05-10T01:10:36;7.05;67.10
75387;DHT22;63966;47.914;22.266;2023-05-10T01:13:42;7.02;67.47
75387;DHT22;63966;47.914;22.266;2023-05-10T01:16:47;6.93;67.53
75387;DHT22;63966;47.914;22.266;2023-05-10T01:19:51;6.85;68.03
75387;DHT22;63966;47.914;22.266;2023-05-10T01:33:52;6.61;68.83
75387;DHT22;63966;47.914;22.266;2023-05-10T01:37:16;6.74;68.33
75387;DHT22;63966;47.914;22.266;2023-05-10T01:47:40;6.54;68.94
75387;DHT22;63966;47.914;22.266;2023-05-10T01:50:46;6.59;68.94
75387;DHT22;63966;47.914;22.266;2023-05-10T01:53:51;6.45;69.22
75387;DHT22;63966;47.914;22.266;2023-05-10T01:57:00;6.50;69.12
75387;DHT22;63966;47.914;22.266;2023-05-10T02:00:07;6.50;69.08
75387;DHT22;63966;47.914;22.266;2023-05-10T02:03:22;6.50;69.49
75387;DHT22;63966;47.914;22.266;2023-05-10T02:06:27;6.55;69.09
75387;DHT22;63966;47.914;22.266;2023-05-10T02:09:33;6.47;69.18
75387;DHT22;63966;47.914;22.266;2023-05-10T02:12:42;6.50;69.17
75387;DHT22;63966;47.914;22.266;2023-05-10T02:15:50;6.40;69.40
75387;DHT22;63966;47.914;22.266;2023-05-10T02:18:54;6.47;69.16
75387;DHT22;63966;47.914;22.266;2023-05-10T02:22:00;6.45;69.29
75387;DHT22;63966;47.914;22.266;2023-05-10T02:25:04;6.50;69.06
75387;DHT22;63966;47.914;22.266;2023-05-10T02:28:11;6.51;68.97
75387;DHT22;63966;47.914;22.266;2023-05-10T02:31:15;6.38;69.49
75387;DHT22;63966;47.914;22.266;2023-05-10T02:34:21;6.37;69.54
75387;DHT22;63966;47.914;22.266;2023-05-10T02:37:26;6.38;69.36
75387;DHT22;63966;47.914;22.266;2023-05-10T02:40:30;6.45;69.14
75387;DHT22;63966;47.914;22.266;2023-05-10T02:43:35;6.44;69.21
75387;DHT22;63966;47.914;22.266;2023-05-10T02:46:40;6.36;69.48
75387;DHT22;63966;47.914;22.266;2023-05-10T02:49:44;6.47;69.12
75387;DHT22;63966;47.914;22.266;2023-05-10T02:52:51;6.44;69.32
75387;DHT22;63966;47.914;22.266;2023-05-10T02:56:00;6.44;69.32
75387;DHT22;63966;47.914;22.266;2023-05-10T02:59:04;6.42;69.33
75387;DHT22;63966;47.914;22.266;2023-05-10T03:02:08;6.47;69.33
75387;DHT22;63966;47.914;22.266;2023-05-10T03:05:12;6.41;69.50
75387;DHT22;63966;47.914;22.266;2023-05-10T03:08:15;6.74;68.46
75387;DHT22;63966;47.914;22.266;2023-05-10T03:15:03;7.27;66.69
75387;DHT22;63966;47.914;22.266;2023-05-10T03:18:16;7.71;65.12
75387;DHT22;63966;47.914;22.266;2023-05-10T03:21:22;8.01;63.92
75387;DHT22;63966;47.914;22.266;2023-05-10T03:24:30;8.49;62.39
75387;DHT22;63966;47.914;22.266;2023-05-10T03:27:37;8.74;61.63
75387;DHT22;63966;47.914;22.266;2023-05-10T03:30:43;9.26;60.19
75387;DHT22;63966;47.914;22.266;2023-05-10T03:33:49;9.63;58.87
75387;DHT22;63966;47.914;22.266;2023-05-10T03:36:58;10.02;57.36
75387;DHT22;63966;47.914;22.266;2023-05-10T03:40:06;10.35;56.59
75387;DHT22;63966;47.914;22.266;2023-05-10T03:43:11;10.80;55.03
75387;DHT22;63966;47.914;22.266;2023-05-10T03:46:15;11.07;54.27
75387;DHT22;63966;47.914;22.266;2023-05-10T03:49:18;11.61;52.46
75387;DHT22;63966;47.914;22.266;2023-05-10T03:52:22;11.96;51.67
75387;DHT22;63966;47.914;22.266;2023-05-10T03:55:25;12.08;51.17
75387;DHT22;63966;47.914;22.266;2023-05-10T03:58:29;12.00;51.31
75387;DHT22;63966;47.914;22.266;2023-05-10T04:01:34;12.48;49.88
75387;DHT22;63966;47.914;22.266;2023-05-10T04:04:38;12.78;49.27
75387;DHT22;63966;47.914;22.266;2023-05-10T04:07:41;13.02;48.42
75387;DHT22;63966;47.914;22.266;2023-05-10T04:10:47;13.28;47.44
75387;DHT22;63966;47.914;22.266;2023-05-10T04:13:50;13.74;46.86
75387;DHT22;63966;47.914;22.266;2023-05-10T04:16:54;14.02;46.18
75387;DHT22;63966;47.914;22.266;2023-05-10T04:19:58;14.06;46.19
75387;DHT22;63966;47.914;22.266;2023-05-10T04:23:01;14.26;45.01
75387;DHT22;63966;47.914;22.266;2023-05-10T04:26:05;14.74;44.50
75387;DHT22;63966;47.914;22.266;2023-05-10T04:29:08;14.70;44.34
75387;DHT22;63966;47.914;22.266;2023-05-10T04:32:11;14.87;44.11
75387;DHT22;63966;47.914;22.266;2023-05-10T04:35:15;15.08;43.91
75387;DHT22;63966;47.914;22.266;2023-05-10T04:38:18;15.42;43.11
75387;DHT22;63966;47.914;22.266;2023-05-10T04:41:22;15.70;42.72
75387;DHT22;63966;47.914;22.266;2023-05-10T04:44:25;16.35;41.22
75387;DHT22;63966;47.914;22.266;2023-05-10T04:47:28;16.19;41.53
75387;DHT22;63966;47.914;22.266;2023-05-10T04:50:32;16.42;41.22
75387;DHT22;63966;47.914;22.266;2023-05-10T04:53:35;17.31;39.79
75387;DHT22;63966;47.914;22.266;2023-05-10T04:56:39;17.73;38.79
75387;DHT22;63966;47.914;22.266;2023-05-10T04:59:42;17.51;38.71
75387;DHT22;63966;47.914;22.266;2023-05-10T05:02:46;17.20;39.46
75387;DHT22;63966;47.914;22.266;2023-05-10T05:05:49;17.30;39.02
75387;DHT22;63966;47.914;22.266;2023-05-10T05:08:53;17.03;39.93
75387;DHT22;63966;47.914;22.266;2023-05-10T05:11:56;17.10;40.02
75387;DHT22;63966;47.914;22.266;2023-05-10T05:15:00;17.31;39.77
75387;DHT22;63966;47.914;22.266;2023-05-10T05:18:03;17.97;38.52
75387;DHT22;63966;47.914;22.266;2023-05-10T05:21:17;17.48;38.99
75387;DHT22;63966;47.914;22.266;2023-05-10T05:24:20;17.39;39.54
75387;DHT22;63966;47.914;22.266;2023-05-10T05:27:24;17.51;38.40
75387;DHT22;63966;47.914;22.266;2023-05-10T05:30:29;17.53;38.09
75387;DHT22;63966;47.914;22.266;2023-05-10T05:33:34;18.04;38.76
75387;DHT22;63966;47.914;22.266;2023-05-10T05:36:37;17.55;38.30
75387;DHT22;63966;47.914;22.266;2023-05-10T05:39:44;17.25;38.02
75387;DHT22;63966;47.914;22.266;2023-05-10T05:42:48;17.15;38.19
75387;DHT22;63966;47.914;22.266;2023-05-10T05:45:55;17.46;37.62
75387;DHT22;63966;47.914;22.266;2023-05-10T05:49:03;17.69;36.80
75387;DHT22;63966;47.914;22.266;2023-05-10T05:52:06;17.44;37.50
75387;DHT22;63966;47.914;22.266;2023-05-10T05:55:09;17.93;36.75
75387;DHT22;63966;47.914;22.266;2023-05-10T05:58:13;18.73;35.40
75387;DHT22;63966;47.914;22.266;2023-05-10T06:01:16;19.00;35.22
75387;DHT22;63966;47.914;22.266;2023-05-10T06:04:20;18.13;36.39
75387;DHT22;63966;47.914;22.266;2023-05-10T06:07:23;18.88;35.43
75387;DHT22;63966;47.914;22.266;2023-05-10T06:10:27;19.20;35.40
75387;DHT22;63966;47.914;22.266;2023-05-10T06:13:30;19.26;35.74
75387;DHT22;63966;47.914;22.266;2023-05-10T06:16:36;20.05;33.77
75387;DHT22;63966;47.914;22.266;2023-05-10T06:19:39;19.79;34.11
75387;DHT22;63966;47.914;22.266;2023-05-10T06:22:43;19.49;34.24
75387;DHT22;63966;47.914;22.266;2023-05-10T06:25:47;19.65;34.09
75387;DHT22;63966;47.914;22.266;2023-05-10T06:28:51;19.86;33.79
75387;DHT22;63966;47.914;22.266;2023-05-10T06:31:55;19.17;35.60
75387;DHT22;63966;47.914;22.266;2023-05-10T06:34:58;20.06;33.33
75387;DHT22;63966;47.914;22.266;2023-05-10T06:38:02;21.14;32.26
75387;DHT22;63966;47.914;22.266;2023-05-10T06:41:05;19.82;33.94
75387;DHT22;63966;47.914;22.266;2023-05-10T06:44:09;18.88;36.39
75387;DHT22;63966;47.914;22.266;2023-05-10T06:47:12;20.46;33.52
75387;DHT22;63966;47.914;22.266;2023-05-10T06:50:16;19.63;35.08
75387;DHT22;63966;47.914;22.266;2023-05-10T06:53:19;19.77;34.69
75387;DHT22;63966;47.914;22.266;2023-05-10T06:56:31;19.44;35.43
75387;DHT22;63966;47.914;22.266;2023-05-10T06:59:34;19.05;36.37
75387;DHT22;63966;47.914;22.266;2023-05-10T07:02:39;18.69;35.86
75387;DHT22;63966;47.914;22.266;2023-05-10T07:05:43;19.49;36.12
75387;DHT22;63966;47.914;22.266;2023-05-10T07:08:49;21.02;33.19
75387;DHT22;63966;47.914;22.266;2023-05-10T07:11:54;21.29;32.08
75387;DHT22;63966;47.914;22.266;2023-05-10T07:14:59;20.19;34.20
75387;DHT22;63966;47.914;22.266;2023-05-10T07:18:03;20.66;33.35
75387;DHT22;63966;47.914;22.266;2023-05-10T07:21:09;21.08;32.43
75387;DHT22;63966;47.914;22.266;2023-05-10T07:24:12;20.84;32.93
75387;DHT22;63966;47.914;22.266;2023-05-10T07:27:18;22.18;31.03
75387;DHT22;63966;47.914;22.266;2023-05-10T07:30:21;22.49;30.62
75387;DHT22;63966;47.914;22.266;2023-05-10T07:33:25;20.67;32.53
75387;DHT22;63966;47.914;22.266;2023-05-10T07:36:28;21.64;31.28
75387;DHT22;63966;47.914;22.266;2023-05-10T07:39:31;21.02;31.88
75387;DHT22;63966;47.914;22.266;2023-05-10T07:42:35;19.71;34.34
75387;DHT22;63966;47.914;22.266;2023-05-10T07:45:39;21.29;31.95
75387;DHT22;63966;47.914;22.266;2023-05-10T07:48:42;21.38;32.12
75387;DHT22;63966;47.914;22.266;2023-05-10T07:51:46;21.94;30.25
75387;DHT22;63966;47.914;22.266;2023-05-10T07:54:49;20.74;33.75
75387;DHT22;63966;47.914;22.266;2023-05-10T07:57:52;19.30;34.82
75387;DHT22;63966;47.914;22.266;2023-05-10T08:00:56;19.19;33.88
75387;DHT22;63966;47.914;22.266;2023-05-10T08:04:00;18.17;35.54
75387;DHT22;63966;47.914;22.266;2023-05-10T08:07:03;18.51;35.32
75387;DHT22;63966;47.914;22.266;2023-05-10T08:10:07;17.93;35.35
75387;DHT22;63966;47.914;22.266;2023-05-10T08:13:11;18.75;35.78
75387;DHT22;63966;47.914;22.266;2023-05-10T08:16:14;19.77;33.50
75387;DHT22;63966;47.914;22.266;2023-05-10T08:19:18;19.54;33.89
75387;DHT22;63966;47.914;22.266;2023-05-10T08:22:24;19.22;34.17
75387;DHT22;63966;47.914;22.266;2023-05-10T08:25:27;19.51;33.55
75387;DHT22;63966;47.914;22.266;2023-05-10T08:28:30;19.37;34.39
75387;DHT22;63966;47.914;22.266;2023-05-10T08:31:34;20.43;31.34
75387;DHT22;63966;47.914;22.266;2023-05-10T08:34:37;20.13;30.28
75387;DHT22;63966;47.914;22.266;2023-05-10T08:37:41;21.16;30.13
75387;DHT22;63966;47.914;22.266;2023-05-10T08:40:45;22.51;28.59
75387;DHT22;63966;47.914;22.266;2023-05-10T08:43:49;21.35;30.48
75387;DHT22;63966;47.914;22.266;2023-05-10T08:46:54;20.30;32.16
75387;DHT22;63966;47.914;22.266;2023-05-10T08:49:59;19.15;34.69
75387;DHT22;63966;47.914;22.266;2023-05-10T08:53:06;18.67;35.13
75387;DHT22;63966;47.914;22.266;2023-05-10T08:56:11;17.96;36.27
75387;DHT22;63966;47.914;22.266;2023-05-10T08:59:15;17.99;35.06
75387;DHT22;63966;47.914;22.266;2023-05-10T09:02:23;17.92;35.73
75387;DHT22;63966;47.914;22.266;2023-05-10T09:05:27;18.17;34.99
75387;DHT22;63966;47.914;22.266;2023-05-10T09:08:31;18.00;33.47
75387;DHT22;63966;47.914;22.266;2023-05-10T09:11:35;18.28;31.80
75387;DHT22;63966;47.914;22.266;2023-05-10T09:14:39;18.16;33.82
75387;DHT22;63966;47.914;22.266;2023-05-10T09:17:47;17.65;34.84
75387;DHT22;63966;47.914;22.266;2023-05-10T09:20:53;17.99;33.63
75387;DHT22;63966;47.914;22.266;2023-05-10T09:24:03;18.28;33.97
75387;DHT22;63966;47.914;22.266;2023-05-10T09:27:12;18.43;32.41
75387;DHT22;63966;47.914;22.266;2023-05-10T09:30:25;18.68;29.78
75387;DHT22;63966;47.914;22.266;2023-05-10T09:33:44;18.30;28.58
75387;DHT22;63966;47.914;22.266;2023-05-10T09:36:57;18.58;32.69
75387;DHT22;63966;47.914;22.266;2023-05-10T09:40:03;18.99;30.53
75387;DHT22;63966;47.914;22.266;2023-05-10T09:43:07;18.89;30.55
75387;DHT22;63966;47.914;22.266;2023-05-10T09:46:11;18.72;32.93
75387;DHT22;63966;47.914;22.266;2023-05-10T09:49:15;18.85;32.76
75387;DHT22;63966;47.914;22.266;2023-05-10T09:52:19;18.71;29.84
75387;DHT22;63966;47.914;22.266;2023-05-10T09:55:24;18.58;31.52
75387;DHT22;63966;47.914;22.266;2023-05-10T09:58:27;18.54;30.44
75387;DHT22;63966;47.914;22.266;2023-05-10T10:01:31;18.13;31.41
75387;DHT22;63966;47.914;22.266;2023-05-10T10:04:39;18.31;31.84
75387;DHT22;63966;47.914;22.266;2023-05-10T10:07:43;18.41;32.07
75387;DHT22;63966;47.914;22.266;2023-05-10T10:10:47;18.52;31.01
75387;DHT22;63966;47.914;22.266;2023-05-10T10:13:50;18.09;31.81
75387;DHT22;63966;47.914;22.266;2023-05-10T10:16:54;18.55;30.50
75387;DHT22;63966;47.914;22.266;2023-05-10T10:20:10;18.98;30.22
75387;DHT22;63966;47.914;22.266;2023-05-10T10:23:14;19.06;30.21
75387;DHT22;63966;47.914;22.266;2023-05-10T10:26:20;18.94;30.16
75387;DHT22;63966;47.914;22.266;2023-05-10T10:30:02;18.84;32.03
75387;DHT22;63966;47.914;22.266;2023-05-10T10:33:30;18.98;32.15
75387;DHT22;63966;47.914;22.266;2023-05-10T10:36:46;19.27;30.99
75387;DHT22;63966;47.914;22.266;2023-05-10T10:39:55;19.05;31.21
75387;DHT22;63966;47.914;22.266;2023-05-10T10:43:26;18.27;30.47
75387;DHT22;63966;47.914;22.266;2023-05-10T10:46:30;18.51;30.94
75387;DHT22;63966;47.914;22.266;2023-05-10T10:52:44;18.98;30.48
75387;DHT22;63966;47.914;22.266;2023-05-10T10:55:48;18.58;30.73
75387;DHT22;63966;47.914;22.266;2023-05-10T10:58:52;18.51;30.39
75387;DHT22;63966;47.914;22.266;2023-05-10T11:01:56;17.94;32.03
75387;DHT22;63966;47.914;22.266;2023-05-10T11:05:22;18.11;31.77
75387;DHT22;63966;47.914;22.266;2023-05-10T11:08:32;18.28;30.89
75387;DHT22;63966;47.914;22.266;2023-05-10T11:11:52;18.41;31.84
75387;DHT22;63966;47.914;22.266;2023-05-10T11:14:58;18.57;30.61
75387;DHT22;63966;47.914;22.266;2023-05-10T11:18:28;19.28;30.71
75387;DHT22;63966;47.914;22.266;2023-05-10T11:21:32;19.70;30.37
75387;DHT22;63966;47.914;22.266;2023-05-10T11:24:36;19.84;29.85
75387;DHT22;63966;47.914;22.266;2023-05-10T11:27:41;19.15;30.42
75387;DHT22;63966;47.914;22.266;2023-05-10T11:30:45;19.51;31.66
75387;DHT22;63966;47.914;22.266;2023-05-10T11:33:50;19.36;29.49
75387;DHT22;63966;47.914;22.266;2023-05-10T11:36:55;19.13;30.18
75387;DHT22;63966;47.914;22.266;2023-05-10T11:39:59;19.28;29.36
75387;DHT22;63966;47.914;22.266;2023-05-10T11:43:03;19.49;30.98
75387;DHT22;63966;47.914;22.266;2023-05-10T11:46:09;19.09;31.08
75387;DHT22;63966;47.914;22.266;2023-05-10T11:49:13;19.44;29.91
75387;DHT22;63966;47.914;22.266;2023-05-10T11:52:19;19.51;29.66
75387;DHT22;63966;47.914;22.266;2023-05-10T11:55:23;19.85;29.37
75387;DHT22;63966;47.914;22.266;2023-05-10T11:58:27;20.04;30.33
75387;DHT22;63966;47.914;22.266;2023-05-10T12:01:31;19.93;33.93
75387;DHT22;63966;47.914;22.266;2023-05-10T12:04:34;19.36;29.26
75387;DHT22;63966;47.914;22.266;2023-05-10T12:07:38;18.84;31.14
75387;DHT22;63966;47.914;22.266;2023-05-10T12:10:41;18.41;30.98
75387;DHT22;63966;47.914;22.266;2023-05-10T12:13:45;18.21;31.44
75387;DHT22;63966;47.914;22.266;2023-05-10T12:16:52;18.20;30.64
75387;DHT22;63966;47.914;22.266;2023-05-10T12:20:21;18.36;30.57
75387;DHT22;63966;47.914;22.266;2023-05-10T12:23:23;19.20;30.53
75387;DHT22;63966;47.914;22.266;2023-05-10T12:26:28;19.77;29.42
75387;DHT22;63966;47.914;22.266;2023-05-10T12:29:32;20.02;28.27
75387;DHT22;63966;47.914;22.266;2023-05-10T12:32:39;20.18;28.68
75387;DHT22;63966;47.914;22.266;2023-05-10T12:35:53;19.81;29.08
75387;DHT22;63966;47.914;22.266;2023-05-10T12:39:03;19.30;29.81
75387;DHT22;63966;47.914;22.266;2023-05-10T12:42:08;18.62;30.91
75387;DHT22;63966;47.914;22.266;2023-05-10T12:45:12;18.23;31.11
75387;DHT22;63966;47.914;22.266;2023-05-10T12:48:16;18.16;31.17
75387;DHT22;63966;47.914;22.266;2023-05-10T12:51:19;18.59;30.64
75387;DHT22;63966;47.914;22.266;2023-05-10T12:54:25;19.22;30.55
75387;DHT22;63966;47.914;22.266;2023-05-10T12:57:28;19.65;30.86
75387;DHT22;63966;47.914;22.266;2023-05-10T13:00:35;19.55;28.51
75387;DHT22;63966;47.914;22.266;2023-05-10T13:03:41;19.77;28.67
75387;DHT22;63966;47.914;22.266;2023-05-10T13:06:46;20.04;27.65
75387;DHT22;63966;47.914;22.266;2023-05-10T13:09:49;20.25;28.13
75387;DHT22;63966;47.914;22.266;2023-05-10T13:12:52;19.95;28.67
75387;DHT22;63966;47.914;22.266;2023-05-10T13:15:56;20.19;29.06
75387;DHT22;63966;47.914;22.266;2023-05-10T13:18:59;20.29;30.46
75387;DHT22;63966;47.914;22.266;2023-05-10T13:22:03;19.75;29.04
75387;DHT22;63966;47.914;22.266;2023-05-10T13:25:08;19.03;30.22
75387;DHT22;63966;47.914;22.266;2023-05-10T13:28:11;18.91;29.70
75387;DHT22;63966;47.914;22.266;2023-05-10T13:31:14;18.85;31.05
75387;DHT22;63966;47.914;22.266;2023-05-10T13:34:18;18.98;30.99
75387;DHT22;63966;47.914;22.266;2023-05-10T13:37:25;18.61;30.03
75387;DHT22;63966;47.914;22.266;2023-05-10T13:40:29;18.34;30.94
75387;DHT22;63966;47.914;22.266;2023-05-10T13:43:32;18.04;30.21
75387;DHT22;63966;47.914;22.266;2023-05-10T13:46:36;18.10;30.15
75387;DHT22;63966;47.914;22.266;2023-05-10T13:49:40;18.36;30.27
75387;DHT22;63966;47.914;22.266;2023-05-10T13:52:44;18.45;29.82
75387;DHT22;63966;47.914;22.266;2023-05-10T13:56:13;18.64;29.42
75387;DHT22;63966;47.914;22.266;2023-05-10T13:59:16;18.69;30.09
75387;DHT22;63966;47.914;22.266;2023-05-10T14:02:20;18.48;29.55
75387;DHT22;63966;47.914;22.266;2023-05-10T14:05:23;18.40;29.29
75387;DHT22;63966;47.914;22.266;2023-05-10T14:08:28;18.26;30.50
75387;DHT22;63966;47.914;22.266;2023-05-10T14:11:31;18.47;30.08
75387;DHT22;63966;47.914;22.266;2023-05-10T14:14:35;18.64;30.13
75387;DHT22;63966;47.914;22.266;2023-05-10T14:17:38;18.69;30.19
75387;DHT22;63966;47.914;22.266;2023-05-10T14:20:42;18.49;29.66
75387;DHT22;63966;47.914;22.266;2023-05-10T14:23:45;18.27;30.01
75387;DHT22;63966;47.914;22.266;2023-05-10T14:26:49;18.13;30.29
75387;DHT22;63966;47.914;22.266;2023-05-10T14:29:56;18.00;31.32
75387;DHT22;63966;47.914;22.266;2023-05-10T14:33:01;17.92;30.77
75387;DHT22;63966;47.914;22.266;2023-05-10T14:36:05;17.85;30.55
75387;DHT22;63966;47.914;22.266;2023-05-10T14:39:09;17.92;29.63
75387;DHT22;63966;47.914;22.266;2023-05-10T14:42:15;18.07;30.63
75387;DHT22;63966;47.914;22.266;2023-05-10T14:45:19;18.30;29.27
75387;DHT22;63966;47.914;22.266;2023-05-10T14:48:23;18.28;28.76
75387;DHT22;63966;47.914;22.266;2023-05-10T14:51:27;18.36;28.72
75387;DHT22;63966;47.914;22.266;2023-05-10T14:54:30;18.44;28.71
75387;DHT22;63966;47.914;22.266;2023-05-10T14:57:35;18.55;29.24
75387;DHT22;63966;47.914;22.266;2023-05-10T15:00:38;18.67;31.44
75387;DHT22;63966;47.914;22.266;2023-05-10T15:03:42;18.81;30.84
75387;DHT22;63966;47.914;22.266;2023-05-10T15:06:46;18.78;30.18
75387;DHT22;63966;47.914;22.266;2023-05-10T15:09:50;18.78;29.76
75387;DHT22;63966;47.914;22.266;2023-05-10T15:12:54;18.58;29.58
75387;DHT22;63966;47.914;22.266;2023-05-10T15:15:58;18.40;29.78
75387;DHT22;63966;47.914;22.266;2023-05-10T15:19:01;18.43;30.44
75387;DHT22;63966;47.914;22.266;2023-05-10T15:22:05;18.41;29.44
75387;DHT22;63966;47.914;22.266;2023-05-10T15:25:09;18.16;31.00
75387;DHT22;63966;47.914;22.266;2023-05-10T15:28:12;18.11;30.87
75387;DHT22;63966;47.914;22.266;2023-05-10T15:31:16;18.21;31.08
75387;DHT22;63966;47.914;22.266;2023-05-10T15:34:19;18.21;31.13
75387;DHT22;63966;47.914;22.266;2023-05-10T15:37:23;18.10;30.87
75387;DHT22;63966;47.914;22.266;2023-05-10T15:40:27;17.99;31.05
75387;DHT22;63966;47.914;22.266;2023-05-10T15:43:30;17.99;31.61
75387;DHT22;63966;47.914;22.266;2023-05-10T15:46:34;17.93;31.43
75387;DHT22;63966;47.914;22.266;2023-05-10T15:49:38;17.96;31.25
75387;DHT22;63966;47.914;22.266;2023-05-10T15:52:41;17.89;31.46
75387;DHT22;63966;47.914;22.266;2023-05-10T15:55:44;17.93;31.82
75387;DHT22;63966;47.914;22.266;2023-05-10T15:58:48;17.93;31.08
75387;DHT22;63966;47.914;22.266;2023-05-10T16:01:51;17.85;30.59
75387;DHT22;63966;47.914;22.266;2023-05-10T16:04:55;17.90;31.56
75387;DHT22;63966;47.914;22.266;2023-05-10T16:07:59;17.86;30.89
75387;DHT22;63966;47.914;22.266;2023-05-10T16:11:03;17.80;30.28
75387;DHT22;63966;47.914;22.266;2023-05-10T16:14:07;17.75;30.03
75387;DHT22;63966;47.914;22.266;2023-05-10T16:17:11;17.76;31.70
75387;DHT22;63966;47.914;22.266;2023-05-10T16:20:14;17.71;30.85
75387;DHT22;63966;47.914;22.266;2023-05-10T16:23:18;17.56;31.23
75387;DHT22;63966;47.914;22.266;2023-05-10T16:26:21;17.56;33.04
75387;DHT22;63966;47.914;22.266;2023-05-10T16:29:25;17.51;32.16
75387;DHT22;63966;47.914;22.266;2023-05-10T16:32:28;17.46;32.59
75387;DHT22;63966;47.914;22.266;2023-05-10T16:35:32;17.35;33.00
75387;DHT22;63966;47.914;22.266;2023-05-10T16:38:35;17.46;31.51
75387;DHT22;63966;47.914;22.266;2023-05-10T16:41:39;17.42;33.06
75387;DHT22;63966;47.914;22.266;2023-05-10T16:44:43;17.36;31.44
75387;DHT22;63966;47.914;22.266;2023-05-10T16:47:46;17.46;31.23
75387;DHT22;63966;47.914;22.266;2023-05-10T16:50:50;17.41;31.92
75387;DHT22;63966;47.914;22.266;2023-05-10T16:53:53;17.36;32.23
75387;DHT22;63966;47.914;22.266;2023-05-10T16:56:56;17.27;32.14
75387;DHT22;63966;47.914;22.266;2023-05-10T17:00:00;17.18;33.05
75387;DHT22;63966;47.914;22.266;2023-05-10T17:03:03;17.15;33.43
75387;DHT22;63966;47.914;22.266;2023-05-10T17:06:07;17.02;33.99
75387;DHT22;63966;47.914;22.266;2023-05-10T17:09:11;17.02;33.14
75387;DHT22;63966;47.914;22.266;2023-05-10T17:12:14;16.84;34.23
75387;DHT22;63966;47.914;22.266;2023-05-10T17:15:18;16.90;34.13
75387;DHT22;63966;47.914;22.266;2023-05-10T17:18:23;16.80;33.90
75387;DHT22;63966;47.914;22.266;2023-05-10T17:21:26;16.65;34.56
75387;DHT22;63966;47.914;22.266;2023-05-10T17:24:30;16.38;35.21
75387;DHT22;63966;47.914;22.266;2023-05-10T17:27:33;16.33;35.55
75387;DHT22;63966;47.914;22.266;2023-05-10T17:30:37;16.08;35.99
75387;DHT22;63966;47.914;22.266;2023-05-10T17:33:40;15.90;36.37
75387;DHT22;63966;47.914;22.266;2023-05-10T17:36:44;15.74;36.62
75387;DHT22;63966;47.914;22.266;2023-05-10T17:39:47;15.63;37.02
75387;DHT22;63966;47.914;22.266;2023-05-10T17:42:51;15.63;36.75
75387;DHT22;63966;47.914;22.266;2023-05-10T17:45:54;15.47;36.93
75387;DHT22;63966;47.914;22.266;2023-05-10T17:48:58;15.44;36.61
75387;DHT22;63966;47.914;22.266;2023-05-10T17:52:01;15.40;36.90
75387;DHT22;63966;47.914;22.266;2023-05-10T17:55:06;15.25;37.11
75387;DHT22;63966;47.914;22.266;2023-05-10T17:58:10;15.11;37.44
75387;DHT22;63966;47.914;22.266;2023-05-10T18:01:14;14.98;37.58
75387;DHT22;63966;47.914;22.266;2023-05-10T18:04:18;14.77;38.04
75387;DHT22;63966;47.914;22.266;2023-05-10T18:07:22;14.73;38.17
75387;DHT22;63966;47.914;22.266;2023-05-10T18:10:26;14.67;38.38
75387;DHT22;63966;47.914;22.266;2023-05-10T18:13:29;14.51;38.71
75387;DHT22;63966;47.914;22.266;2023-05-10T18:16:32;14.34;39.02
75387;DHT22;63966;47.914;22.266;2023-05-10T18:19:36;14.12;39.51
75387;DHT22;63966;47.914;22.266;2023-05-10T18:22:39;13.88;40.10
75387;DHT22;63966;47.914;22.266;2023-05-10T18:25:43;13.75;40.19
75387;DHT22;63966;47.914;22.266;2023-05-10T18:28:46;13.47;44.09
75387;DHT22;63966;47.914;22.266;2023-05-10T18:31:50;13.10;44.73
75387;DHT22;63966;47.914;22.266;2023-05-10T18:34:53;12.81;46.10
75387;DHT22;63966;47.914;22.266;2023-05-10T18:37:57;12.46;46.08
75387;DHT22;63966;47.914;22.266;2023-05-10T18:41:01;12.28;45.54
75387;DHT22;63966;47.914;22.266;2023-05-10T18:44:05;12.14;46.07
75387;DHT22;63966;47.914;22.266;2023-05-10T18:47:09;12.01;48.02
75387;DHT22;63966;47.914;22.266;2023-05-10T18:50:12;11.86;48.28
75387;DHT22;63966;47.914;22.266;2023-05-10T18:53:15;11.93;47.01
75387;DHT22;63966;47.914;22.266;2023-05-10T18:56:19;11.94;47.04
75387;DHT22;63966;47.914;22.266;2023-05-10T18:59:24;11.77;51.22
75387;DHT22;63966;47.914;22.266;2023-05-10T19:02:30;11.58;52.62
75387;DHT22;63966;47.914;22.266;2023-05-10T19:05:33;11.43;55.32
75387;DHT22;63966;47.914;22.266;2023-05-10T19:08:37;11.22;57.09
75387;DHT22;63966;47.914;22.266;2023-05-10T19:11:40;11.03;57.01
75387;DHT22;63966;47.914;22.266;2023-05-10T19:14:45;10.89;57.23
75387;DHT22;63966;47.914;22.266;2023-05-10T19:17:49;10.81;58.02
75387;DHT22;63966;47.914;22.266;2023-05-10T19:20:54;10.67;57.45
75387;DHT22;63966;47.914;22.266;2023-05-10T19:23:58;10.53;58.56
75387;DHT22;63966;47.914;22.266;2023-05-10T19:27:03;10.41;59.27
75387;DHT22;63966;47.914;22.266;2023-05-10T19:30:07;10.21;58.80
75387;DHT22;63966;47.914;22.266;2023-05-10T19:33:11;10.02;59.37
75387;DHT22;63966;47.914;22.266;2023-05-10T19:36:16;10.08;58.23